Maryland — A8DP2 — position and weather

sailwx.info

Track history (hours):
 
Tides and Currents Weather Stations Pressure Air Temp Water Temp Dewpoint Dewpoint Depression Visibility Wind Speed Wind Dir Waves Ship Positions

Maryland

Last reported at 2017-Oct-16 18:21 UTC. Time now 2017-Oct-17 17:16 UTC.
Position N 45°42' E 036°46'.

Length 179 m; draft 6 m.

Type: Cargo ship. MMSI: 636012131.

Date/timePositionNaut miles runAvg speedWind from/ knotsBaromVisibWave heightAir tempDewpointWater temp
2017-Oct-16 18:21N 45°42' E 036°46'3 9.5
2017-Oct-16 18:00N 45°38' E 036°45'5 9.5
2017-Oct-16 17:30N 45°34' E 036°45'5 9.2
2017-Oct-16 17:00N 45°29' E 036°43'5 9.9
2017-Oct-16 16:30N 45°25' E 036°41'4 8.5
2017-Oct-16 16:00N 45°21' E 036°38'510.3
2017-Oct-16 15:30N 45°19' E 036°31'5 9.1
2017-Oct-16 15:00N 45°15' E 036°28'4 4.1
2017-Oct-16 13:56N 45°11' E 036°29'0 0.0
2017-Oct-16 13:29N 45°11' E 036°29'0 0.0
2017-Oct-16 12:59N 45°11' E 036°29'0 0.1
2017-Oct-16 12:29N 45°11' E 036°29'0 0.0
2017-Oct-16 11:56N 45°11' E 036°29'0 0.0
2017-Oct-16 11:29N 45°11' E 036°29'0 0.0
2017-Oct-16 10:59N 45°11' E 036°29'0 0.0
2017-Oct-16 10:17N 45°11' E 036°29'0 0.0
2017-Oct-16 09:53N 45°11' E 036°29'0 0.1
2017-Oct-16 09:26N 45°11' E 036°29'0 0.0
2017-Oct-16 08:50N 45°11' E 036°29'0 0.0
2017-Oct-16 08:26N 45°11' E 036°29'0 0.0
2017-Oct-16 07:59N 45°11' E 036°29'0 0.0
2017-Oct-16 07:29N 45°11' E 036°29'0 0.1
2017-Oct-16 06:59N 45°11' E 036°29'0 0.0
2017-Oct-16 06:20N 45°11' E 036°29'0 0.0
2017-Oct-16 06:00N 45°11' E 036°29'1 1.3
2017-Oct-16 05:30N 45°10' E 036°29'3 5.2
2017-Oct-16 05:00N 45°08' E 036°30'510.0
2017-Oct-16 04:30N 45°03' E 036°31'41011.0
2017-Oct-14 15:12N 40°59' E 028°60'2 7.1
2017-Oct-14 14:52N 40°57' E 028°59'4 9.4
2017-Oct-14 14:29N 40°54' E 028°56'611.6
2017-Oct-14 14:00N 40°52' E 028°49'14410.8
2017-Oct-14 00:42N 39°54' E 025°56'211.1
2017-Oct-14 00:30N 39°52' E 025°55'611.5
2017-Oct-14 00:00N 39°47' E 025°51'10111.3
2017-Oct-13 15:08N 38°18' E 024°53'110.6
2017-Oct-13 15:00N 38°16' E 024°52'254 7.4
2017-Oct-12 04:25N 39°06' E 019°32'512.1
2017-Oct-12 03:59N 39°11' E 019°29'611.8
2017-Oct-12 03:30N 39°16' E 019°25'611.4
2017-Oct-12 03:00N 39°21' E 019°22'5211.9
2017-Oct-11 22:39N 40°04' E 018°44'212.0
2017-Oct-11 22:30N 40°06' E 018°42'611.9
2017-Oct-11 22:00N 40°10' E 018°38'1212.2
2017-Oct-11 21:01N 40°20' E 018°29'011.4
2017-Oct-11 21:00N 40°20' E 018°29'712.2
2017-Oct-11 20:27N 40°26' E 018°24'512.0
2017-Oct-11 20:00N 40°30' E 018°19'712.4
2017-Oct-11 19:26N 40°36' E 018°14'512.4
2017-Oct-11 19:00N 40°40' E 018°09'712.8
2017-Oct-11 18:28N 40°45' E 018°04'1013.0
2017-Oct-11 17:43N 40°52' E 017°55'25012.4
2017-Oct-10 21:29N 43°49' E 013°55'1312.3
2017-Oct-10 20:26N 43°57' E 013°41'512.3
2017-Oct-10 20:00N 43°60' E 013°35'1912.4
2017-Oct-10 18:30N 44°11' E 013°14'712.5
2017-Oct-10 17:58N 44°14' E 013°06'1812.5
2017-Oct-10 16:31N 44°24' E 012°45'312.5
2017-Oct-10 16:18N 44°25' E 012°41'412.6
2017-Oct-10 16:00N 44°27' E 012°37'15 0.6
2017-Oct-09 16:26N 44°28' E 012°15'0 0.0
2017-Oct-09 15:14N 44°28' E 012°15'0 0.0
2017-Oct-09 14:26N 44°28' E 012°15'0 0.0
2017-Oct-08 11:23N 44°28' E 012°15'0 0.0
2017-Oct-08 10:14N 44°28' E 012°15'0 0.0
2017-Oct-08 09:59N 44°28' E 012°15'0 0.0
2017-Oct-08 09:29N 44°28' E 012°15'0 0.0
2017-Oct-08 08:59N 44°28' E 012°15'0 0.0
2017-Oct-08 08:26N 44°28' E 012°15'0 0.0
2017-Oct-08 07:59N 44°28' E 012°15'0 0.0
2017-Oct-08 07:26N 44°28' E 012°15'0 0.0
2017-Oct-08 06:53N 44°28' E 012°15'0 0.0
2017-Oct-08 06:29N 44°28' E 012°15'0 0.0
2017-Oct-08 05:59N 44°28' E 012°15'0 0.0
2017-Oct-08 05:23N 44°28' E 012°15'0 0.0
2017-Oct-08 04:59N 44°28' E 012°15'0 0.0
2017-Oct-08 04:29N 44°28' E 012°15'0 0.0
2017-Oct-08 03:56N 44°28' E 012°15'0 0.0
2017-Oct-08 03:29N 44°28' E 012°15'0 0.0
2017-Oct-08 02:59N 44°28' E 012°15'0 0.0
2017-Oct-08 02:29N 44°28' E 012°15'0 0.0
2017-Oct-07 22:47N 44°28' E 012°15'0 0.0
2017-Oct-07 21:41N 44°28' E 012°15'0 0.0
2017-Oct-07 18:41N 44°28' E 012°15'0 0.0
2017-Oct-07 18:23N 44°28' E 012°15'0 0.0
2017-Oct-07 15:23N 44°28' E 012°15'0 0.0
2017-Oct-07 14:53N 44°28' E 012°15'0 0.0
2017-Oct-07 14:26N 44°28' E 012°15'0 0.0
2017-Oct-07 13:59N 44°28' E 012°15'0 0.0
2017-Oct-07 13:20N 44°28' E 012°15'0 0.0
2017-Oct-07 12:50N 44°28' E 012°15'0 0.0
2017-Oct-07 12:05N 44°28' E 012°15'0 0.0
2017-Oct-07 11:53N 44°28' E 012°15'0 0.0
2017-Oct-07 11:29N 44°28' E 012°15'0 0.0
2017-Oct-07 07:29N 44°28' E 012°15'0 0.0
2017-Oct-07 06:59N 44°28' E 012°15'0 0.0
2017-Oct-07 06:20N 44°28' E 012°15'0 0.0
2017-Oct-07 05:53N 44°28' E 012°15'  
Track history (hours):
 
Tides and Currents Weather Stations Pressure Air Temp Water Temp Dewpoint Dewpoint Depression Visibility Wind Speed Wind Dir Waves Ship Positions

Maryland

Last reported at 2017-Oct-16 18:21 UTC. Time now 2017-Oct-17 17:16 UTC.
Position N 45°42' E 036°46'.

Length 179 m; draft 6 m.

Type: Cargo ship. MMSI: 636012131.

Date/timePositionNaut miles runAvg speedWind from/ knotsBaromVisibWave heightAir tempDewpointWater temp
2017-Oct-16 18:21N 45°42' E 036°46'3 9.5
2017-Oct-16 18:00N 45°38' E 036°45'5 9.5
2017-Oct-16 17:30N 45°34' E 036°45'5 9.2
2017-Oct-16 17:00N 45°29' E 036°43'5 9.9
2017-Oct-16 16:30N 45°25' E 036°41'4 8.5
2017-Oct-16 16:00N 45°21' E 036°38'510.3
2017-Oct-16 15:30N 45°19' E 036°31'5 9.1
2017-Oct-16 15:00N 45°15' E 036°28'4 4.1
2017-Oct-16 13:56N 45°11' E 036°29'0 0.0
2017-Oct-16 13:29N 45°11' E 036°29'0 0.0
2017-Oct-16 12:59N 45°11' E 036°29'0 0.1
2017-Oct-16 12:29N 45°11' E 036°29'0 0.0
2017-Oct-16 11:56N 45°11' E 036°29'0 0.0
2017-Oct-16 11:29N 45°11' E 036°29'0 0.0
2017-Oct-16 10:59N 45°11' E 036°29'0 0.0
2017-Oct-16 10:17N 45°11' E 036°29'0 0.0
2017-Oct-16 09:53N 45°11' E 036°29'0 0.1
2017-Oct-16 09:26N 45°11' E 036°29'0 0.0
2017-Oct-16 08:50N 45°11' E 036°29'0 0.0
2017-Oct-16 08:26N 45°11' E 036°29'0 0.0
2017-Oct-16 07:59N 45°11' E 036°29'0 0.0
2017-Oct-16 07:29N 45°11' E 036°29'0 0.1
2017-Oct-16 06:59N 45°11' E 036°29'0 0.0
2017-Oct-16 06:20N 45°11' E 036°29'0 0.0
2017-Oct-16 06:00N 45°11' E 036°29'1 1.3
2017-Oct-16 05:30N 45°10' E 036°29'3 5.2
2017-Oct-16 05:00N 45°08' E 036°30'510.0
2017-Oct-16 04:30N 45°03' E 036°31'41011.0
2017-Oct-14 15:12N 40°59' E 028°60'2 7.1
2017-Oct-14 14:52N 40°57' E 028°59'4 9.4
2017-Oct-14 14:29N 40°54' E 028°56'611.6
2017-Oct-14 14:00N 40°52' E 028°49'14410.8
2017-Oct-14 00:42N 39°54' E 025°56'211.1
2017-Oct-14 00:30N 39°52' E 025°55'611.5
2017-Oct-14 00:00N 39°47' E 025°51'10111.3
2017-Oct-13 15:08N 38°18' E 024°53'110.6
2017-Oct-13 15:00N 38°16' E 024°52'254 7.4
2017-Oct-12 04:25N 39°06' E 019°32'512.1
2017-Oct-12 03:59N 39°11' E 019°29'611.8
2017-Oct-12 03:30N 39°16' E 019°25'611.4
2017-Oct-12 03:00N 39°21' E 019°22'5211.9
2017-Oct-11 22:39N 40°04' E 018°44'212.0
2017-Oct-11 22:30N 40°06' E 018°42'611.9
2017-Oct-11 22:00N 40°10' E 018°38'1212.2
2017-Oct-11 21:01N 40°20' E 018°29'011.4
2017-Oct-11 21:00N 40°20' E 018°29'712.2
2017-Oct-11 20:27N 40°26' E 018°24'512.0
2017-Oct-11 20:00N 40°30' E 018°19'712.4
2017-Oct-11 19:26N 40°36' E 018°14'512.4
2017-Oct-11 19:00N 40°40' E 018°09'712.8
2017-Oct-11 18:28N 40°45' E 018°04'1013.0
2017-Oct-11 17:43N 40°52' E 017°55'25012.4
2017-Oct-10 21:29N 43°49' E 013°55'1312.3
2017-Oct-10 20:26N 43°57' E 013°41'512.3
2017-Oct-10 20:00N 43°60' E 013°35'1912.4
2017-Oct-10 18:30N 44°11' E 013°14'712.5
2017-Oct-10 17:58N 44°14' E 013°06'1812.5
2017-Oct-10 16:31N 44°24' E 012°45'312.5
2017-Oct-10 16:18N 44°25' E 012°41'412.6
2017-Oct-10 16:00N 44°27' E 012°37'15 0.6
2017-Oct-09 16:26N 44°28' E 012°15'0 0.0
2017-Oct-09 15:14N 44°28' E 012°15'0 0.0
2017-Oct-09 14:26N 44°28' E 012°15'0 0.0
2017-Oct-08 11:23N 44°28' E 012°15'0 0.0
2017-Oct-08 10:14N 44°28' E 012°15'0 0.0
2017-Oct-08 09:59N 44°28' E 012°15'0 0.0
2017-Oct-08 09:29N 44°28' E 012°15'0 0.0
2017-Oct-08 08:59N 44°28' E 012°15'0 0.0
2017-Oct-08 08:26N 44°28' E 012°15'0 0.0
2017-Oct-08 07:59N 44°28' E 012°15'0 0.0
2017-Oct-08 07:26N 44°28' E 012°15'0 0.0
2017-Oct-08 06:53N 44°28' E 012°15'0 0.0
2017-Oct-08 06:29N 44°28' E 012°15'0 0.0
2017-Oct-08 05:59N 44°28' E 012°15'0 0.0
2017-Oct-08 05:23N 44°28' E 012°15'0 0.0
2017-Oct-08 04:59N 44°28' E 012°15'0 0.0
2017-Oct-08 04:29N 44°28' E 012°15'0 0.0
2017-Oct-08 03:56N 44°28' E 012°15'0 0.0
2017-Oct-08 03:29N 44°28' E 012°15'0 0.0
2017-Oct-08 02:59N 44°28' E 012°15'0 0.0
2017-Oct-08 02:29N 44°28' E 012°15'0 0.0
2017-Oct-07 22:47N 44°28' E 012°15'0 0.0
2017-Oct-07 21:41N 44°28' E 012°15'0 0.0
2017-Oct-07 18:41N 44°28' E 012°15'0 0.0
2017-Oct-07 18:23N 44°28' E 012°15'0 0.0
2017-Oct-07 15:23N 44°28' E 012°15'0 0.0
2017-Oct-07 14:53N 44°28' E 012°15'0 0.0
2017-Oct-07 14:26N 44°28' E 012°15'0 0.0
2017-Oct-07 13:59N 44°28' E 012°15'0 0.0
2017-Oct-07 13:20N 44°28' E 012°15'0 0.0
2017-Oct-07 12:50N 44°28' E 012°15'0 0.0
2017-Oct-07 12:05N 44°28' E 012°15'0 0.0
2017-Oct-07 11:53N 44°28' E 012°15'0 0.0
2017-Oct-07 11:29N 44°28' E 012°15'0 0.0
2017-Oct-07 07:29N 44°28' E 012°15'0 0.0
2017-Oct-07 06:59N 44°28' E 012°15'0 0.0
2017-Oct-07 06:20N 44°28' E 012°15'0 0.0
2017-Oct-07 05:53N 44°28' E 012°15'  

Dump ship's entire track history